Cypress, IL

2:52 PM CDT on August 01, 2015 (GMT -0500)
Hidden River Farms | | Change Station
CLOSE
Current Station
Personal Weather Station
Location: Buncombe, IL
Elevation: 466 ft
Nearby Weather Stations

Elev 466 ft 37.47 °N, 89.11 °W | Updated 14 seconds ago

Partly Cloudy
Partly Cloudy
87.3 °F
Feels Like 95 °F
N
0.0
Wind Variable Wind from East
Gusts 0.0 mph

Today
High -- | Low -- °F
--% Chance of Precip.
Yesterday
High -- | Low -- °F
Precip. -- in
6:00 AM 8:04 PM
Full, 97% visible
Pressure 30.01 in
Visibility 10.0 miles
Clouds Clear
Heat Index 95 °F
Dew Point 74 °F
Humidity 64%
Rainfall 0.00 in
Snow Depth Not available.
UV 10 out of 12
Pollen 7.10 out of 12
Air Quality Not available.
Flu Activity Not available.
METAR KM30 011935Z AUTO 30004KT 10SM CLR 31/21 A3001 RMK AO2 T03070206

More Conditions Fewer Conditions

Pressure 30.01 in
Visibility 10.0 miles
Clouds Clear
Heat Index 95 °F
Dew Point 74 °F
Humidity 64%
Rainfall 0.00 in
Snow Depth Not available.
UV 10 out of 12
Pollen 7.10 out of 12
Air Quality Not available.
Flu Activity Not available.
METAR KM30 011935Z AUTO 30004KT 10SM CLR 31/21 A3001 RMK AO2 T03070206

More Conditions Fewer Conditions

10-Day Weather Forecast

×

Almanac

Astronomy

Aug. 01, 2015 Rise Set
Actual Time
Civil Twilight
Nautical Twilight
Astronomical Twilight
Moon
Length of Visible Light
Length of Day
Tomorrow will be .
, % of the Moon is Illuminated

Today's Extremes

State Highs State Lows

Community

WunderPhotos

Upload Photos

1,843,043 photos uploaded!

WunderBlogs® & News

Nearby

Air Quality

  Air Quality AQ Index Pollutant
Not available.

Snow Depth

Station Depth Elevation

Earthquake Activity

City Distance Mag. Time & Date
Minimum magnitude displayed is 2.5.

Coastal Water Temperatures

Place Temperature

Stations

Nearby Weather Stations

Station Location Temp. Windchill Dew Point Humidity Wind Precip. Elev Updated Type